Time;durP1;ratioP1;P1;durP2;ratioP2;P2;SDS_P1;SDS_P2;PMS_P1;PMS_P2;Temp;Humidity;BMP_temperature;BMP_pressure;BME280_temperature;BME280_humidity;BME280_pressure;Samples;Min_cycle;Max_cycle;Signal;HPM_P1;HPM_P2
2023/10/01 00:02:02;;;;;;;;;;;;;;;28.51;42.01;95182.03;5059840;28;8788;-62
2023/10/01 00:05:05;;;;;;;;;;;;;;;28.54;42.12;95180.22;5065102;28;7247;-62
2023/10/01 00:07:39;;;;;;;;;;;;;;;28.53;41.08;95179.50;5050197;28;7914;-62
2023/10/01 00:10:22;;;;;;;;;;;;;;;28.53;41.44;95175.97;5065477;28;9322;-62
2023/10/01 00:12:59;;;;;;;;;;;;;;;28.51;41.23;95170.19;5079055;28;9137;-62
2023/10/01 00:15:42;;;;;;;;;;;;;;;28.51;41.27;95176.50;5053310;28;7082;-62
2023/10/01 00:18:08;;;;;;;;;;;;;;;28.51;40.95;95182.03;5066316;28;6985;-62
2023/10/01 00:20:35;;;;;;;;;;;;;;;28.52;41.21;95180.00;5050607;28;7251;-62
2023/10/01 00:23:11;;;;;;;;;;;;;;;28.51;41.49;95181.28;5065420;28;9314;-62
2023/10/01 00:25:38;;;;;;;;;;;;;;;28.50;41.35;95183.28;5065883;28;7279;-62
2023/10/01 00:28:20;;;;;;;;;;;;;;;28.49;41.64;95175.50;5072495;28;7361;-62
2023/10/01 00:30:50;;;;;;;;;;;;;;;28.49;41.46;95176.25;5083639;28;7342;-62
2023/10/01 00:33:41;;;;;;;;;;;;;;;28.50;42.09;95174.97;5042268;28;9069;-62
2023/10/01 00:36:23;;;;;;;;;;;;;;;28.47;41.24;95164.91;5046609;28;7241;-62
2023/10/01 00:38:50;;;;;;;;;;;;;;;28.48;41.49;95163.66;5076484;28;9086;-62
2023/10/01 00:41:22;;;;;;;;;;;;;;;28.47;40.98;95167.69;5061651;28;7203;-62
2023/10/01 00:43:48;;;;;;;;;;;;;;;28.49;41.72;95172.72;5073973;28;9109;-62
2023/10/01 00:46:14;;;;;;;;;;;;;;;28.48;41.89;95160.91;5067756;28;9047;-62
2023/10/01 00:48:45;;;;;;;;;;;;;;;28.50;41.57;95174.22;5055350;28;7270;-62
2023/10/01 00:51:14;;;;;;;;;;;;;;;28.46;41.51;95163.44;5065046;28;7433;-62
2023/10/01 00:53:42;;;;;;;;;;;;;;;28.48;41.19;95166.44;5060900;28;7401;-61
2023/10/01 00:56:08;;;;;;;;;;;;;;;28.47;41.93;95159.38;5036995;28;7458;-62
2023/10/01 00:58:34;;;;;;;;;;;;;;;28.47;41.08;95158.66;5062501;28;7224;-62
2023/10/01 01:01:04;;;;;;;;;;;;;;;28.47;41.98;95159.38;5060144;28;7277;-62
2023/10/01 01:03:30;;;;;;;;;;;;;;;28.47;41.87;95159.38;5070572;28;8023;-60
2023/10/01 01:08:33;;;;;;;;;;;;;;;28.46;41.49;95149.59;5066822;28;8912;-59
2023/10/01 01:11:01;;;;;;;;;;;;;;;28.46;41.25;95152.34;5068647;28;7246;-59
2023/10/01 01:13:29;;;;;;;;;;;;;;;28.46;41.60;95154.38;5068223;28;9165;-60
2023/10/01 01:15:57;;;;;;;;;;;;;;;28.43;41.20;95145.06;5083602;28;9277;-59
2023/10/01 01:18:26;;;;;;;;;;;;;;;28.45;41.90;95148.06;5057741;28;9089;-60
2023/10/01 01:21:05;;;;;;;;;;;;;;;28.46;41.66;95155.13;5059500;28;7062;-60
2023/10/01 01:23:33;;;;;;;;;;;;;;;28.45;41.95;95150.13;5043742;28;7556;-60
2023/10/01 01:25:59;;;;;;;;;;;;;;;28.44;41.14;95149.34;5058876;28;9305;-59
2023/10/01 01:28:30;;;;;;;;;;;;;;;28.41;41.90;95139.31;5068679;28;7324;-60
2023/10/01 01:30:59;;;;;;;;;;;;;;;28.43;41.26;95142.31;5071288;28;8648;-60
2023/10/01 01:33:59;;;;;;;;;;;;;;;28.43;41.20;95141.56;5058478;28;7467;-60
2023/10/01 01:36:20;;;;;;;;;;;;;;;28.44;41.43;95140.28;5064896;28;7105;-60
2023/10/01 01:39:26;;;;;;;;;;;;;;;28.44;41.47;95137.53;5061466;28;7240;-60
2023/10/01 01:42:00;;;;;;;;;;;;;;;28.43;41.57;95128.47;5066056;28;7400;-60
2023/10/01 01:44:31;;;;;;;;;;;;;;;28.42;41.50;95129.75;5071683;28;9417;-60
2023/10/01 01:47:06;;;;;;;;;;;;;;;28.38;41.87;95118.94;5035429;28;8901;-60
2023/10/01 01:49:33;;;;;;;;;;;;;;;28.40;41.71;95128.75;5047324;28;7423;-60
2023/10/01 01:52:03;;;;;;;;;;;;;;;28.39;42.13;95128.00;5049162;28;7202;-60
2023/10/01 01:54:31;;;;;;;;;;;;;;;28.39;41.87;95130.75;5046560;28;7188;-60
2023/10/01 01:57:02;;;;;;;;;;;;;;;28.38;41.90;95129.28;5042377;28;6991;-59
2023/10/01 01:59:29;;;;;;;;;;;;;;;28.38;42.08;95131.28;5078872;28;7244;-60
2023/10/01 02:01:56;;;;;;;;;;;;;;;28.37;42.16;95127.75;5041417;28;7081;-60
2023/10/01 02:04:25;;;;;;;;;;;;;;;28.34;41.80;95114.94;5063151;28;7214;-60
2023/10/01 02:07:00;;;;;;;;;;;;;;;28.38;41.46;95118.19;5056842;28;9206;-60
2023/10/01 02:09:26;;;;;;;;;;;;;;;28.35;42.16;95116.44;5063236;28;9352;-59
2023/10/01 02:11:57;;;;;;;;;;;;;;;28.35;42.05;95114.44;5042479;28;9480;-60
2023/10/01 02:14:30;;;;;;;;;;;;;;;28.35;41.33;95117.22;5077604;28;8775;-60
2023/10/01 02:17:16;;;;;;;;;;;;;;;28.36;41.78;95115.19;5055802;28;7153;-60
2023/10/01 02:19:46;;;;;;;;;;;;;;;28.33;41.55;95118.97;5073713;28;7243;-60
2023/10/01 02:22:13;;;;;;;;;;;;;;;28.33;41.97;95125.28;5067477;28;8806;-60
2023/10/01 02:27:20;;;;;;;;;;;;;;;28.32;42.14;95125.75;5061951;28;7062;-60
2023/10/01 02:33:17;;;;;;;;;;;;;;;28.31;41.81;95136.09;5014828;28;9220;-60
2023/10/01 02:35:55;;;;;;;;;;;;;;;28.30;41.52;95134.59;4995096;28;7261;-60
2023/10/01 02:38:43;;;;;;;;;;;;;;;28.30;41.64;95126.28;5002420;28;7074;-60
2023/10/01 02:41:26;;;;;;;;;;;;;;;28.30;41.77;95120.75;5004427;28;7014;-60
2023/10/01 02:44:01;;;;;;;;;;;;;;;28.29;41.77;95112.97;4994392;28;7427;-61
2023/10/01 02:46:38;;;;;;;;;;;;;;;28.29;41.69;95115.72;4988284;28;6995;-60
2023/10/01 02:49:05;;;;;;;;;;;;;;;28.29;42.01;95124.78;5019952;28;9289;-61
2023/10/01 02:51:37;;;;;;;;;;;;;;;28.27;41.63;95119.00;4982764;28;7429;-61
2023/10/01 02:54:11;;;;;;;;;;;;;;;28.27;41.80;95123.78;4992006;28;7342;-61
2023/10/01 02:57:11;;;;;;;;;;;;;;;28.26;42.13;95122.28;5005726;28;8844;-60
2023/10/01 03:02:51;;;;;;;;;;;;;;;28.29;41.78;95129.56;5013402;28;7235;-60
2023/10/01 03:05:41;;;;;;;;;;;;;;;28.23;41.74;95118.50;5014455;28;7247;-60
2023/10/01 03:08:17;;;;;;;;;;;;;;;28.25;41.72;95120.78;5045438;28;7273;-60
2023/10/01 03:10:56;;;;;;;;;;;;;;;28.26;42.19;95122.28;5042582;28;7144;-60
2023/10/01 03:13:30;;;;;;;;;;;;;;;28.25;41.38;95121.53;5068794;28;7091;-60
2023/10/01 03:18:55;;;;;;;;;;;;;;;28.24;42.25;95122.03;5071667;28;7340;-60
2023/10/01 03:22:15;;;;;;;;;;;;;;;28.24;41.86;95116.50;5074890;28;9491;-60
2023/10/01 03:24:41;;;;;;;;;;;;;;;28.21;41.78;95126.56;5061149;28;9190;-60
2023/10/01 03:27:39;;;;;;;;;;;;;;;28.22;42.03;95138.41;5076409;28;9524;-60
2023/10/01 03:30:20;;;;;;;;;;;;;;;28.20;41.45;95129.88;5062443;28;7032;-60
2023/10/01 03:32:46;;;;;;;;;;;;;;;28.22;41.73;95124.56;5059235;28;7263;-60
2023/10/01 03:35:12;;;;;;;;;;;;;;;28.23;42.19;95129.56;5046270;28;9567;-60
2023/10/01 03:37:38;;;;;;;;;;;;;;;28.23;41.62;95128.84;5061680;28;8839;-60
2023/10/01 03:40:18;;;;;;;;;;;;;;;28.21;41.81;95131.34;5060032;28;7314;-61
2023/10/01 03:42:51;;;;;;;;;;;;;;;28.21;42.24;95132.09;5059828;28;7218;-60
2023/10/01 03:48:19;;;;;;;;;;;;;;;28.18;42.28;95115.78;5062178;28;9134;-60
2023/10/01 03:50:47;;;;;;;;;;;;;;;28.20;41.86;95118.78;5066609;28;8289;-60
2023/10/01 03:53:18;;;;;;;;;;;;;;;28.19;42.30;95118.03;5058378;28;7136;-60
2023/10/01 03:56:00;;;;;;;;;;;;;;;28.18;42.43;95115.78;5067938;28;8888;-60
2023/10/01 03:58:36;;;;;;;;;;;;;;;28.18;42.06;95115.78;5060856;28;7037;-60
2023/10/01 04:01:26;;;;;;;;;;;;;;;28.17;42.11;95117.03;5079122;28;7215;-60
2023/10/01 04:03:54;;;;;;;;;;;;;;;28.19;42.03;95114.50;5079631;28;7450;-60
2023/10/01 04:06:30;;;;;;;;;;;;;;;28.17;41.66;95109.50;5043704;28;8022;-60
2023/10/01 04:09:06;;;;;;;;;;;;;;;28.16;41.99;95112.78;5055790;28;6988;-60
2023/10/01 04:15:07;;;;;;;;;;;;;;;28.16;42.16;95113.53;5003303;28;8755;-60
2023/10/01 04:17:36;;;;;;;;;;;;;;;28.16;41.98;95110.03;4989775;28;8649;-60
2023/10/01 04:20:19;;;;;;;;;;;;;;;28.17;41.75;95111.50;4991103;28;7260;-60
2023/10/01 04:23:04;;;;;;;;;;;;;;;28.16;41.99;95110.03;4990714;28;7465;-60
2023/10/01 04:25:43;;;;;;;;;;;;;;;28.13;42.35;95108.25;5003787;28;7241;-60
2023/10/01 04:28:21;;;;;;;;;;;;;;;28.14;41.82;95115.31;5016419;28;7277;-60
2023/10/01 04:30:57;;;;;;;;;;;;;;;28.14;42.08;95118.81;5009146;28;8765;-60
2023/10/01 04:33:31;;;;;;;;;;;;;;;28.13;41.79;95116.56;4992894;28;9129;-55
2023/10/01 04:36:01;;;;;;;;;;;;;;;28.12;41.99;95124.09;4988508;28;9163;-55
2023/10/01 04:39:00;;;;;;;;;;;;;;;28.14;42.08;95120.84;4997832;28;7176;-56
2023/10/01 04:41:26;;;;;;;;;;;;;;;28.13;41.85;95113.78;4996439;28;7314;-55
2023/10/01 04:44:27;;;;;;;;;;;;;;;28.13;42.39;95119.31;4994170;28;7245;-56
2023/10/01 04:47:41;;;;;;;;;;;;;;;28.09;42.06;95116.84;4929858;28;9017;-55
2023/10/01 04:50:17;;;;;;;;;;;;;;;28.11;41.61;95111.56;4964448;28;7276;-55
2023/10/01 04:52:44;;;;;;;;;;;;;;;28.11;42.34;95114.31;4956454;28;8777;-55
2023/10/01 04:55:10;;;;;;;;;;;;;;;28.11;41.81;95113.56;4973695;28;9402;-56
2023/10/01 04:57:41;;;;;;;;;;;;;;;28.09;42.62;95113.31;4957662;28;8758;-55
2023/10/01 05:00:10;;;;;;;;;;;;;;;28.07;41.89;95113.84;4955143;28;7754;-55
2023/10/01 05:02:43;;;;;;;;;;;;;;;28.09;42.11;95118.84;4973918;28;7351;-55
2023/10/01 05:05:09;;;;;;;;;;;;;;;28.10;41.57;95114.84;4958254;28;7327;-56
2023/10/01 05:07:36;;;;;;;;;;;;;;;28.09;42.19;95110.56;4964995;28;7320;-55
2023/10/01 05:10:04;;;;;;;;;;;;;;;28.06;41.98;95115.09;4962798;28;8861;-55
2023/10/01 05:12:43;;;;;;;;;;;;;;;28.08;42.19;95120.09;4973194;28;7046;-56
2023/10/01 05:15:17;;;;;;;;;;;;;;;28.08;41.61;95122.88;4967549;28;6991;-55
2023/10/01 05:18:17;;;;;;;;;;;;;;;28.08;42.22;95117.34;4979358;28;7030;-55
2023/10/01 05:20:58;;;;;;;;;;;;;;;28.06;41.44;95119.84;4946705;28;9097;-56
2023/10/01 05:23:26;;;;;;;;;;;;;;;28.07;42.28;95116.59;4990262;28;7088;-56
2023/10/01 05:26:03;;;;;;;;;;;;;;;28.07;42.22;95116.59;4992648;28;7211;-55
2023/10/01 05:28:32;;;;;;;;;;;;;;;28.03;42.16;95110.59;4990447;28;8687;-56
2023/10/01 05:31:24;;;;;;;;;;;;;;;28.06;41.65;95117.84;5007961;28;8237;-55
2023/10/01 05:34:06;;;;;;;;;;;;;;;28.04;42.08;95112.06;4994617;28;9091;-55
2023/10/01 05:37:08;;;;;;;;;;;;;;;28.07;41.49;95115.84;4999843;28;9431;-55
2023/10/01 05:43:18;;;;;;;;;;;;;;;28.05;41.63;95123.91;5010471;28;7224;-55
2023/10/01 05:45:52;;;;;;;;;;;;;;;28.05;41.89;95135.72;4995200;28;7213;-59
2023/10/01 05:48:34;;;;;;;;;;;;;;;28.04;42.55;95123.13;5000807;28;7375;-59
2023/10/01 05:51:15;;;;;;;;;;;;;;;28.03;42.29;95126.44;4999390;28;9441;-59
2023/10/01 05:53:42;;;;;;;;;;;;;;;28.04;41.90;95131.44;5016105;28;8921;-59
2023/10/01 05:56:11;;;;;;;;;;;;;;;28.03;41.96;95140.25;5033971;28;6982;-60
2023/10/01 05:59:11;;;;;;;;;;;;;;;28.04;42.01;95141.75;5044083;28;8935;-60
2023/10/01 06:01:50;;;;;;;;;;;;;;;28.05;41.83;95137.72;4989852;28;8737;-59
2023/10/01 06:04:29;;;;;;;;;;;;;;;28.03;42.30;95135.47;4992363;28;9368;-59
2023/10/01 06:07:02;;;;;;;;;;;;;;;28.02;42.20;95136.72;4983283;28;7310;-59
2023/10/01 06:09:46;;;;;;;;;;;;;;;28.02;42.05;95135.97;4969377;28;7345;-59
2023/10/01 06:12:21;;;;;;;;;;;;;;;28.01;41.98;95142.78;4986313;28;7352;-60
2023/10/01 06:14:50;;;;;;;;;;;;;;;28.00;42.11;95136.47;4974227;28;7167;-59
2023/10/01 06:18:00;;;;;;;;;;;;;;;28.01;42.06;95138.00;4990496;28;7079;-59
2023/10/01 06:20:27;;;;;;;;;;;;;;;28.02;42.38;95130.44;4971021;28;7214;-59
2023/10/01 06:22:56;;;;;;;;;;;;;;;28.01;41.82;95135.25;4976211;28;7063;-60
2023/10/01 06:25:51;;;;;;;;;;;;;;;28.02;42.36;95136.72;4950775;28;8157;-59
2023/10/01 06:28:23;;;;;;;;;;;;;;;28.03;42.02;95126.44;4961368;28;7192;-59
2023/10/01 06:30:49;;;;;;;;;;;;;;;28.04;42.01;95128.66;4933272;28;9032;-59
2023/10/01 06:33:53;;;;;;;;;;;;;;;28.03;42.48;95131.94;4965558;28;8728;-59
2023/10/01 06:36:29;;;;;;;;;;;;;;;28.00;41.84;95130.19;4926826;29;7237;-59
2023/10/01 06:39:19;;;;;;;;;;;;;;;28.03;42.15;95131.94;4953390;28;7018;-59
2023/10/01 06:42:20;;;;;;;;;;;;;;;28.02;42.24;95133.19;4952605;28;8237;-59
2023/10/01 06:45:17;;;;;;;;;;;;;;;28.02;41.99;95133.19;4948012;28;7220;-59
2023/10/01 06:47:51;;;;;;;;;;;;;;;28.00;41.96;95132.97;4896082;29;9463;-59
2023/10/01 06:50:20;;;;;;;;;;;;;;;27.99;41.73;95125.94;4891081;29;7162;-59
2023/10/01 06:52:57;;;;;;;;;;;;;;;28.01;42.23;95131.72;4882799;29;7230;-59
2023/10/01 06:55:30;;;;;;;;;;;;;;;27.98;41.93;95124.44;4895879;29;7999;-60
2023/10/01 06:58:27;;;;;;;;;;;;;;;28.00;42.07;95135.72;4937559;29;7253;-60
2023/10/01 07:01:34;;;;;;;;;;;;;;;27.99;42.23;95131.47;4931835;29;7357;-60
2023/10/01 07:04:05;;;;;;;;;;;;;;;28.00;42.24;95130.19;4876234;29;10013;-60
2023/10/01 07:06:48;;;;;;;;;;;;;;;27.99;42.56;95137.72;4879801;29;7223;-60
2023/10/01 07:09:34;;;;;;;;;;;;;;;27.95;41.91;95131.69;4891487;29;7218;-61
2023/10/01 07:12:02;;;;;;;;;;;;;;;27.99;42.17;95140.50;4896655;29;7595;-61
2023/10/01 07:14:38;;;;;;;;;;;;;;;28.01;41.67;95142.78;4893162;29;9124;-60
2023/10/01 07:17:14;;;;;;;;;;;;;;;28.01;41.69;95140.78;4898300;29;7239;-60
2023/10/01 07:19:45;;;;;;;;;;;;;;;28.02;41.63;95136.72;4891343;29;7232;-61
2023/10/01 07:22:38;;;;;;;;;;;;;;;28.03;41.30;95138.25;4882449;29;7423;-60
2023/10/01 07:25:04;;;;;;;;;;;;;;;28.00;41.32;95142.03;4932805;28;7321;-60
2023/10/01 07:27:33;;;;;;;;;;;;;;;28.01;41.24;95146.31;4956333;28;9216;-60
2023/10/01 07:30:01;;;;;;;;;;;;;;;28.03;42.06;95143.78;4962373;28;7258;-60
2023/10/01 07:32:26;;;;;;;;;;;;;;;28.00;41.29;95142.03;4935886;29;9353;-60
2023/10/01 07:34:59;;;;;;;;;;;;;;;28.03;41.40;95149.31;4940442;28;7245;-60
2023/10/01 07:37:31;;;;;;;;;;;;;;;28.00;42.17;95147.56;4934361;28;7306;-60
2023/10/01 07:40:09;;;;;;;;;;;;;;;28.01;41.86;95146.31;5036723;28;7897;-60
2023/10/01 07:42:49;;;;;;;;;;;;;;;28.01;42.06;95143.53;5054535;28;7210;-61
2023/10/01 07:45:16;;;;;;;;;;;;;;;28.04;42.15;95144.50;5058275;28;7247;-61
2023/10/01 07:47:45;;;;;;;;;;;;;;;28.05;41.54;95140.50;5068478;28;6993;-60
2023/10/01 07:50:12;;;;;;;;;;;;;;;28.02;42.15;95142.25;5055715;28;7608;-60
2023/10/01 07:52:40;;;;;;;;;;;;;;;28.02;42.48;95144.25;5056801;28;8220;-60
2023/10/01 07:57:52;;;;;;;;;;;;;;;28.06;43.24;95144.75;5073509;28;7261;-61
2023/10/01 08:00:28;;;;;;;;;;;;;;;28.07;43.26;95149.03;5040661;28;8816;-60
2023/10/01 08:05:41;;;;;;;;;;;;;;;28.10;43.34;95148.03;5065853;28;7232;-61
2023/10/01 08:08:10;;;;;;;;;;;;;;;28.09;43.16;95140.97;5070020;28;9036;-60
2023/10/01 08:10:45;;;;;;;;;;;;;;;28.05;42.69;95146.78;5064107;28;7243;-60
2023/10/01 08:13:23;;;;;;;;;;;;;;;28.08;42.19;95156.06;5060609;28;9069;-60
2023/10/01 08:16:02;;;;;;;;;;;;;;;28.08;42.06;95150.53;5080300;28;8769;-60
2023/10/01 08:18:39;;;;;;;;;;;;;;;28.07;42.64;95160.09;5077880;28;7332;-60
2023/10/01 08:21:37;;;;;;;;;;;;;;;28.07;41.92;95151.78;5056692;28;7331;-60
2023/10/01 08:23:57;;;;;;;;;;;;;;;28.07;42.44;95158.09;5072474;28;8127;-60
2023/10/01 08:29:14;;;;;;;;;;;;;;;28.12;42.16;95156.56;5045303;28;8608;-60
2023/10/01 08:34:27;;;;;;;;;;;;;;;28.06;42.46;95158.56;5073288;28;7274;-60
2023/10/01 08:37:09;;;;;;;;;;;;;;;28.05;41.77;95157.09;5063167;28;9097;-60
2023/10/01 08:39:53;;;;;;;;;;;;;;;28.07;42.57;95160.09;5059920;28;9057;-60
2023/10/01 08:42:22;;;;;;;;;;;;;;;28.05;42.12;95168.91;5070710;28;7469;-60
2023/10/01 08:44:50;;;;;;;;;;;;;;;28.06;42.05;95166.88;5089964;28;8176;-60
2023/10/01 08:47:31;;;;;;;;;;;;;;;28.04;42.47;95161.09;5084247;28;7228;-60
2023/10/01 08:50:19;;;;;;;;;;;;;;;28.05;41.98;95165.38;5064274;28;6987;-60
2023/10/01 08:52:55;;;;;;;;;;;;;;;28.04;42.08;95163.88;5060489;28;9086;-60
2023/10/01 08:55:35;;;;;;;;;;;;;;;28.02;41.78;95163.63;5048377;28;9971;-60
2023/10/01 09:01:10;;;;;;;;;;;;;;;28.02;41.80;95164.38;5057103;28;9083;-60
2023/10/01 09:03:36;;;;;;;;;;;;;;;28.02;42.22;95160.84;5059566;28;6996;-60
2023/10/01 09:06:24;;;;;;;;;;;;;;;28.06;42.07;95169.63;5052689;28;7200;-60
2023/10/01 09:08:59;;;;;;;;;;;;;;;28.06;42.25;95164.09;5069982;28;7501;-60
2023/10/01 09:11:45;;;;;;;;;;;;;;;28.05;41.89;95163.38;5069284;28;9193;-61
2023/10/01 09:14:38;;;;;;;;;;;;;;;28.09;41.70;95163.09;5058549;28;7138;-60
2023/10/01 09:17:27;;;;;;;;;;;;;;;28.10;41.62;95161.84;5052728;28;7704;-60
2023/10/01 09:20:06;;;;;;;;;;;;;;;28.08;41.80;95167.88;5041648;28;7322;-60
2023/10/01 09:22:58;;;;;;;;;;;;;;;28.10;42.03;95172.91;5040421;28;7322;-60
2023/10/01 09:25:55;;;;;;;;;;;;;;;28.09;41.90;95172.16;5071465;28;6870;-60
2023/10/01 09:28:37;;;;;;;;;;;;;;;28.09;42.02;95182.47;5074205;28;7548;-60
2023/10/01 09:31:26;;;;;;;;;;;;;;;28.11;41.87;95177.94;5049376;28;7923;-60
2023/10/01 09:33:55;;;;;;;;;;;;;;;28.12;42.07;95181.47;5073251;28;9750;-62
2023/10/01 09:36:45;;;;;;;;;;;;;;;28.15;41.81;95172.88;5069236;28;9140;-62
2023/10/01 09:39:36;;;;;;;;;;;;;;;28.13;41.57;95172.63;5043827;28;8743;-62
2023/10/01 09:42:23;;;;;;;;;;;;;;;28.15;41.91;95178.41;5064365;28;9235;-62
2023/10/01 09:45:09;;;;;;;;;;;;;;;28.12;41.88;95184.94;5066310;28;7380;-61
2023/10/01 09:47:49;;;;;;;;;;;;;;;28.12;41.95;95178.69;5049055;28;7052;-62
2023/10/01 09:50:19;;;;;;;;;;;;;;;28.13;42.40;95180.19;5041719;28;8871;-62
2023/10/01 09:52:52;;;;;;;;;;;;;;;28.12;42.21;95173.88;5046409;28;9120;-62
2023/10/01 09:55:26;;;;;;;;;;;;;;;28.12;41.64;95173.88;5069402;28;7051;-62
2023/10/01 09:58:11;;;;;;;;;;;;;;;28.10;41.83;95176.41;5054898;28;8825;-62
2023/10/01 10:00:48;;;;;;;;;;;;;;;28.10;42.02;95172.91;5046439;28;7065;-62
2023/10/01 10:03:23;;;;;;;;;;;;;;;28.11;41.27;95180.69;5045253;28;6972;-62
2023/10/01 10:05:51;;;;;;;;;;;;;;;28.09;41.24;95174.16;5068031;28;7213;-62
2023/10/01 10:08:26;;;;;;;;;;;;;;;28.07;40.89;95166.38;5051399;28;8820;-62
2023/10/01 10:10:56;;;;;;;;;;;;;;;28.10;41.26;95170.16;5082822;28;7202;-62
2023/10/01 10:13:50;;;;;;;;;;;;;;;28.12;41.05;95167.63;5081099;28;7512;-62
2023/10/01 10:16:31;;;;;;;;;;;;;;;28.16;40.74;95168.09;5077385;28;8726;-62
2023/10/01 10:19:20;;;;;;;;;;;;;;;28.20;41.08;95160.28;5037081;28;9147;-62
2023/10/01 10:22:16;;;;;;;;;;;;;;;28.22;41.12;95160.53;5041378;28;7757;-62
2023/10/01 10:24:50;;;;;;;;;;;;;;;28.21;40.19;95159.78;5058924;28;7062;-62
2023/10/01 10:27:28;;;;;;;;;;;;;;;28.22;40.63;95158.53;5059410;28;8845;-62
2023/10/01 10:30:14;;;;;;;;;;;;;;;28.22;40.20;95155.00;5072508;28;8792;-62
2023/10/01 10:33:14;;;;;;;;;;;;;;;28.23;40.73;95160.00;5039617;28;7137;-62
2023/10/01 10:35:49;;;;;;;;;;;;;;;28.24;40.27;95155.25;5049418;28;7060;-55
2023/10/01 10:38:54;;;;;;;;;;;;;;;28.27;40.45;95157.72;5047985;28;8779;-55
2023/10/01 10:41:25;;;;;;;;;;;;;;;28.31;40.23;95163.00;5066373;28;7148;-55
2023/10/01 10:44:09;;;;;;;;;;;;;;;28.29;39.86;95160.75;5061189;28;6981;-55
2023/10/01 10:47:03;;;;;;;;;;;;;;;28.29;40.42;95169.06;5065871;28;7092;-55
2023/10/01 10:49:54;;;;;;;;;;;;;;;28.31;40.49;95169.31;5042517;28;7486;-55
2023/10/01 10:52:31;;;;;;;;;;;;;;;28.29;40.38;95154.47;5064874;28;7268;-56
2023/10/01 10:55:17;;;;;;;;;;;;;;;28.32;40.07;95156.19;5052286;28;9334;-55
2023/10/01 10:57:53;;;;;;;;;;;;;;;28.31;40.28;95163.75;5054920;28;9013;-55
2023/10/01 11:00:28;;;;;;;;;;;;;;;28.29;39.97;95158.00;5056372;28;7637;-55
2023/10/01 11:02:59;;;;;;;;;;;;;;;28.29;40.57;95160.75;5057693;28;9131;-55
2023/10/01 11:05:35;;;;;;;;;;;;;;;28.32;40.31;95164.50;5064831;28;9047;-55
2023/10/01 11:08:07;;;;;;;;;;;;;;;28.31;40.30;95163.00;5061232;28;7239;-55
2023/10/01 11:10:47;;;;;;;;;;;;;;;28.31;39.88;95163.00;5056165;28;9310;-55
2023/10/01 11:13:20;;;;;;;;;;;;;;;28.33;40.13;95161.25;5070104;28;9452;-55
2023/10/01 11:15:47;;;;;;;;;;;;;;;28.37;40.53;95166.50;5052587;28;8872;-55
2023/10/01 11:18:13;;;;;;;;;;;;;;;28.36;39.85;95153.94;5075079;28;7513;-55
2023/10/01 11:20:45;;;;;;;;;;;;;;;28.33;40.30;95155.72;5081197;28;7216;-55
2023/10/01 11:23:18;;;;;;;;;;;;;;;28.35;40.27;95153.19;5048682;28;8754;-56
2023/10/01 11:25:47;;;;;;;;;;;;;;;28.34;40.30;95154.44;5064676;28;9133;-55
2023/10/01 11:28:14;;;;;;;;;;;;;;;28.36;40.50;95151.16;5077659;28;7235;-55
2023/10/01 11:30:42;;;;;;;;;;;;;;;28.40;40.75;95145.34;5066030;28;9023;-56
2023/10/01 11:33:13;;;;;;;;;;;;;;;28.40;40.60;95150.88;5070467;28;7081;-55
2023/10/01 11:36:07;;;;;;;;;;;;;;;28.40;40.08;95140.56;5065263;28;8735;-56
2023/10/01 11:38:45;;;;;;;;;;;;;;;28.41;39.49;95136.53;5065623;28;7263;-55
2023/10/01 11:41:38;;;;;;;;;;;;;;;28.43;39.99;95133.28;5054414;28;7550;-56
2023/10/01 11:44:43;;;;;;;;;;;;;;;28.44;39.82;95138.28;5071854;28;7924;-61
2023/10/01 11:47:31;;;;;;;;;;;;;;;28.44;39.67;95134.75;5047694;28;8666;-61
2023/10/01 11:50:23;;;;;;;;;;;;;;;28.49;40.03;95134.75;5061271;28;8197;-61
2023/10/01 11:53:16;;;;;;;;;;;;;;;28.53;40.66;95128.91;5054630;28;7304;-60
2023/10/01 11:55:44;;;;;;;;;;;;;;;28.53;40.06;95123.38;5061168;28;7144;-61
2023/10/01 11:58:16;;;;;;;;;;;;;;;28.55;39.92;95120.84;5059570;28;8898;-61
2023/10/01 12:00:59;;;;;;;;;;;;;;;28.54;40.20;95120.09;5064075;28;8781;-61
2023/10/01 12:03:58;;;;;;;;;;;;;;;28.56;40.53;95123.09;5050436;28;9230;-61
2023/10/01 12:06:34;;;;;;;;;;;;;;;28.56;40.37;95116.84;5058660;28;8804;-62
2023/10/01 12:09:02;;;;;;;;;;;;;;;28.59;39.71;95113.81;5058999;28;7231;-61
2023/10/01 12:12:06;;;;;;;;;;;;;;;28.59;40.40;95108.28;5044369;28;8780;-61
2023/10/01 12:17:47;;;;;;;;;;;;;;;28.65;40.61;95114.53;5000447;28;9034;-61
2023/10/01 12:20:23;;;;;;;;;;;;;;;28.68;40.82;95096.91;4975265;28;7594;-61
2023/10/01 12:23:26;;;;;;;;;;;;;;;28.69;40.15;95092.84;5001882;28;9039;-61
2023/10/01 12:28:34;;;;;;;;;;;;;;;28.71;40.94;95087.53;4996275;28;8854;-61
2023/10/01 12:31:08;;;;;;;;;;;;;;;28.76;39.93;95092.28;5008846;28;8269;-61
2023/10/01 12:33:58;;;;;;;;;;;;;;;28.76;40.72;95097.84;4979402;28;7193;-61
2023/10/01 12:36:45;;;;;;;;;;;;;;;28.78;40.54;95083.47;5003404;28;7215;-61
2023/10/01 12:42:10;;;;;;;;;;;;;;;28.81;41.12;95083.19;4989509;28;8192;-61
2023/10/01 12:44:43;;;;;;;;;;;;;;;28.84;40.88;95078.66;4991746;28;9508;-61
2023/10/01 12:47:15;;;;;;;;;;;;;;;28.86;40.21;95074.06;4988951;28;9758;-61
2023/10/01 12:49:58;;;;;;;;;;;;;;;28.86;40.92;95060.22;5036467;28;7258;-61
2023/10/01 12:52:31;;;;;;;;;;;;;;;28.87;40.93;95072.81;5062443;28;7051;-61
2023/10/01 12:55:00;;;;;;;;;;;;;;;28.85;40.66;95050.44;5052841;28;6993;-60
2023/10/01 12:57:42;;;;;;;;;;;;;;;28.90;40.76;95054.44;5053996;28;7120;-60
2023/10/01 13:00:44;;;;;;;;;;;;;;;28.94;40.52;95052.88;5062277;28;8756;-60
2023/10/01 13:03:42;;;;;;;;;;;;;;;28.95;41.34;95048.81;5064423;28;7452;-60
2023/10/01 13:06:19;;;;;;;;;;;;;;;28.98;40.66;95045.03;5021184;28;6988;-60
2023/10/01 13:08:47;;;;;;;;;;;;;;;28.99;40.70;95049.28;5024251;28;8962;-60
2023/10/01 13:11:43;;;;;;;;;;;;;;;28.99;40.91;95049.28;5017005;28;7569;-60
2023/10/01 13:14:23;;;;;;;;;;;;;;;29.03;40.19;95040.72;5026799;28;9289;-60
2023/10/01 13:17:04;;;;;;;;;;;;;;;29.04;41.35;95045.72;5020779;28;7226;-60
2023/10/01 13:19:34;;;;;;;;;;;;;;;29.04;40.86;95044.97;5018103;28;7140;-60
2023/10/01 13:22:18;;;;;;;;;;;;;;;29.07;40.52;95044.69;5031269;28;7835;-61
2023/10/01 13:24:54;;;;;;;;;;;;;;;29.07;40.58;95041.94;5033036;28;9193;-60
2023/10/01 13:27:30;;;;;;;;;;;;;;;29.10;41.06;95040.88;5004459;28;6994;-60
2023/10/01 13:30:20;;;;;;;;;;;;;;;29.14;41.03;95037.09;4997886;28;9087;-60
2023/10/01 13:35:50;;;;;;;;;;;;;;;29.17;40.86;95022.22;5034233;28;7444;-60
2023/10/01 14:10:04;;;;;;;;;;;;;;;29.29;41.21;95016.03;4991351;28;9068;-62
2023/10/01 14:12:56;;;;;;;;;;;;;;;29.29;40.67;95010.50;4991061;28;7346;-63
2023/10/01 14:15:36;;;;;;;;;;;;;;;29.33;41.48;95015.75;4990568;28;9200;-62
2023/10/01 14:18:34;;;;;;;;;;;;;;;29.30;40.68;95006.44;4989809;28;9098;-62
2023/10/01 14:21:12;;;;;;;;;;;;;;;29.34;40.99;95006.91;5030280;28;6996;-62
2023/10/01 14:23:40;;;;;;;;;;;;;;;29.34;40.29;95004.13;5060521;28;6856;-62
2023/10/01 14:26:46;;;;;;;;;;;;;;;29.36;40.06;95011.94;5052011;28;9044;-62
2023/10/01 14:29:24;;;;;;;;;;;;;;;29.39;40.19;95005.34;5013243;28;6869;-62
2023/10/01 14:32:10;;;;;;;;;;;;;;;29.41;40.57;95011.88;5015337;28;9387;-62
2023/10/01 14:34:37;;;;;;;;;;;;;;;29.45;41.19;95006.03;5036134;28;7188;-62
2023/10/01 14:37:06;;;;;;;;;;;;;;;29.45;40.13;95006.78;5029170;28;9053;-62
2023/10/01 14:40:13;;;;;;;;;;;;;;;29.48;40.61;95008.50;5047339;28;8812;-62
2023/10/01 14:42:49;;;;;;;;;;;;;;;29.50;41.12;95005.97;5018651;28;8782;-62
2023/10/01 14:45:15;;;;;;;;;;;;;;;29.52;40.88;94999.88;5013986;28;9074;-62
2023/10/01 14:47:42;;;;;;;;;;;;;;;29.53;40.68;95004.94;5032460;28;6982;-62
2023/10/01 14:50:40;;;;;;;;;;;;;;;29.55;39.92;94998.84;5005738;28;7510;-62
2023/10/01 14:53:13;;;;;;;;;;;;;;;29.57;41.21;94999.09;4958168;28;7040;-62
2023/10/01 14:55:40;;;;;;;;;;;;;;;29.57;40.77;94997.06;4954646;28;7258;-62
2023/10/01 14:58:19;;;;;;;;;;;;;;;29.58;39.77;94998.56;4927009;28;7245;-62
2023/10/01 15:00:57;;;;;;;;;;;;;;;29.61;40.36;94993.97;4958737;28;9136;-62
2023/10/01 15:03:36;;;;;;;;;;;;;;;29.56;40.88;94989.25;4945674;28;7228;-62
2023/10/01 15:06:36;;;;;;;;;;;;;;;29.62;40.34;94993.44;4972753;28;8833;-62
2023/10/01 15:09:02;;;;;;;;;;;;;;;29.65;40.81;94989.66;4875622;29;6983;-62
2023/10/01 15:11:30;;;;;;;;;;;;;;;29.65;40.89;94991.66;4873709;29;9028;-62
2023/10/01 15:13:57;;;;;;;;;;;;;;;29.68;40.59;94998.94;4878212;29;7867;-61
2023/10/01 15:16:30;;;;;;;;;;;;;;;29.67;40.55;95000.19;4877069;29;7281;-62